createdAt,value
2023-04-30T00:01:22.297Z,58.08
2023-04-30T00:03:50.585Z,51.45
2023-04-30T00:06:20.490Z,54.38
2023-04-30T00:08:48.649Z,49.35
2023-04-30T00:11:17.032Z,52.90
2023-04-30T00:13:45.150Z,50.85
2023-04-30T00:16:13.647Z,50.97
2023-04-30T00:18:41.873Z,47.92
2023-04-30T00:21:10.248Z,50.45
2023-04-30T00:23:39.701Z,52.03
2023-04-30T00:26:08.122Z,59.17
2023-04-30T00:28:36.202Z,57.13
2023-04-30T00:31:06.855Z,56.20
2023-04-30T00:33:34.987Z,53.30
2023-04-30T00:36:03.372Z,49.55
2023-04-30T00:38:31.540Z,44.72
2023-04-30T00:41:01.880Z,46.38
2023-04-30T00:43:29.978Z,44.08
2023-04-30T00:45:58.730Z,47.75
2023-04-30T00:48:27.815Z,44.95
2023-04-30T00:50:56.205Z,50.38
2023-04-30T00:53:24.441Z,51.38
2023-04-30T00:55:53.274Z,52.20
2023-04-30T00:58:22.963Z,58.75
2023-04-30T01:03:47.470Z,62.72
2023-04-30T01:06:16.174Z,65.88
2023-04-30T01:08:44.706Z,66.72
2023-04-30T01:11:21.129Z,66.95
2023-04-30T01:13:54.642Z,68.82
2023-04-30T01:16:26.652Z,69.57
2023-04-30T01:19:00.657Z,67.05
2023-04-30T01:21:30.917Z,70.22
2023-04-30T01:24:15.089Z,72.05
2023-04-30T01:26:54.549Z,74.20
2023-04-30T01:29:26.075Z,73.40
2023-04-30T01:31:54.552Z,72.18
2023-04-30T01:34:23.966Z,72.43
2023-04-30T01:37:05.054Z,75.97
2023-04-30T01:39:42.076Z,74.35
2023-04-30T01:42:16.865Z,75.65
2023-04-30T01:44:56.084Z,76.97
2023-04-30T01:47:34.700Z,77.63
2023-04-30T01:50:11.705Z,77.15
2023-04-30T01:52:41.896Z,73.50
2023-04-30T01:55:12.937Z,68.32
2023-04-30T01:57:44.068Z,58.30
2023-04-30T02:00:15.013Z,62.60
2023-04-30T02:02:43.564Z,68.37
2023-04-30T02:05:11.760Z,67.72
2023-04-30T02:07:41.791Z,68.32
2023-04-30T02:10:11.883Z,65.13
2023-04-30T02:12:40.370Z,68.40
2023-04-30T02:15:10.069Z,77.38
2023-04-30T02:17:40.003Z,77.60
2023-04-30T02:20:09.252Z,72.45
2023-04-30T02:22:37.876Z,68.93
2023-04-30T02:25:06.744Z,66.63
2023-04-30T02:27:35.328Z,65.35
2023-04-30T02:30:04.357Z,64.13
2023-04-30T02:32:33.009Z,69.43
2023-04-30T02:35:02.731Z,60.80
2023-04-30T02:37:31.147Z,66.20
2023-04-30T02:39:59.562Z,65.03
2023-04-30T02:42:27.919Z,61.17
2023-04-30T02:44:56.039Z,57.08
2023-04-30T02:47:24.440Z,55.22
2023-04-30T02:49:53.184Z,56.17
2023-04-30T02:52:23.143Z,57.13
2023-04-30T02:54:51.446Z,60.53
2023-04-30T02:57:19.844Z,54.78
2023-04-30T02:59:47.948Z,56.83
2023-04-30T03:02:16.712Z,58.53
2023-04-30T03:04:45.031Z,59.63
2023-04-30T03:07:13.426Z,55.72
2023-04-30T03:09:42.911Z,50.13
2023-04-30T03:12:11.283Z,51.83
2023-04-30T03:14:39.427Z,51.88
2023-04-30T03:17:07.946Z,51.55
2023-04-30T03:19:36.079Z,49.35
2023-04-30T03:22:04.512Z,50.95
2023-04-30T03:24:32.712Z,52.42
2023-04-30T03:27:02.466Z,48.95
2023-04-30T03:29:30.611Z,46.65
2023-04-30T03:31:59.015Z,49.15
2023-04-30T03:34:27.222Z,46.30
2023-04-30T03:36:55.615Z,47.20
2023-04-30T03:39:23.803Z,48.88
2023-04-30T03:41:52.170Z,53.22
2023-04-30T03:44:21.639Z,48.33
2023-04-30T03:46:49.973Z,45.72
2023-04-30T03:49:18.158Z,42.45
2023-04-30T03:51:46.884Z,44.00
2023-04-30T03:54:15.080Z,42.53
2023-04-30T03:56:44.380Z,40.55
2023-04-30T03:59:12.589Z,44.90
2023-04-30T04:01:42.423Z,49.78
2023-04-30T04:04:10.843Z,43.35
2023-04-30T04:06:39.278Z,48.22
2023-04-30T04:09:07.733Z,43.47
2023-04-30T04:11:36.254Z,51.42
2023-04-30T04:14:04.809Z,41.38
2023-04-30T04:16:33.593Z,34.83
2023-04-30T04:19:04.471Z,35.92
2023-04-30T04:21:33.418Z,37.15
2023-04-30T04:24:05.343Z,34.13
2023-04-30T04:26:33.972Z,33.17
2023-04-30T04:29:02.104Z,29.60
2023-04-30T04:31:30.604Z,32.05
2023-04-30T04:34:00.344Z,31.80
2023-04-30T04:36:30.306Z,29.23
2023-04-30T04:39:01.898Z,25.98
2023-04-30T04:41:30.601Z,29.63
2023-04-30T04:43:58.862Z,29.05
2023-04-30T04:46:28.307Z,30.83
2023-04-30T04:48:56.757Z,22.77
2023-04-30T04:51:25.339Z,28.15
2023-04-30T04:53:54.804Z,27.02
2023-04-30T04:56:23.181Z,32.15
2023-04-30T04:58:51.375Z,31.60
2023-04-30T05:01:19.845Z,28.30
2023-04-30T05:03:49.090Z,30.17
2023-04-30T05:06:17.705Z,28.50
2023-04-30T05:08:45.925Z,26.55
2023-04-30T05:11:16.073Z,31.20
2023-04-30T05:13:44.243Z,23.95
2023-04-30T05:16:12.668Z,21.70
2023-04-30T05:18:40.920Z,19.98
2023-04-30T05:21:09.293Z,22.60
2023-04-30T05:23:37.384Z,25.15
2023-04-30T05:26:06.246Z,26.00
2023-04-30T05:28:35.938Z,23.75
2023-04-30T05:31:04.340Z,19.77
2023-04-30T05:33:32.474Z,17.73
2023-04-30T05:36:01.065Z,17.02
2023-04-30T05:38:29.187Z,15.48
2023-04-30T05:40:57.539Z,18.13
2023-04-30T05:43:25.776Z,25.85
2023-04-30T05:45:55.614Z,20.40
2023-04-30T05:48:23.846Z,24.85
2023-04-30T05:50:52.346Z,21.55
2023-04-30T05:53:20.476Z,20.90
2023-04-30T05:55:48.873Z,24.08
2023-04-30T05:58:17.067Z,21.13
2023-04-30T06:00:45.618Z,26.55
2023-04-30T06:03:15.619Z,30.20
2023-04-30T06:05:44.463Z,20.23
2023-04-30T06:08:12.608Z,22.33
2023-04-30T06:10:41.155Z,23.25
2023-04-30T06:13:09.384Z,24.02
2023-04-30T06:15:37.821Z,26.70
2023-04-30T06:18:06.020Z,28.25
2023-04-30T06:20:35.959Z,25.27
2023-04-30T06:23:04.114Z,29.88
2023-04-30T06:25:32.529Z,32.50
2023-04-30T06:28:01.458Z,28.70
2023-04-30T06:30:31.432Z,32.95
2023-04-30T06:32:59.601Z,31.75
2023-04-30T06:35:28.052Z,37.53
2023-04-30T06:37:57.655Z,41.38
2023-04-30T06:40:26.092Z,37.20
2023-04-30T06:42:54.617Z,35.80
2023-04-30T06:45:23.217Z,35.42
2023-04-30T06:47:52.879Z,52.63
2023-04-30T06:50:21.865Z,43.08
2023-04-30T06:52:50.042Z,39.38
2023-04-30T06:55:19.988Z,40.45
2023-04-30T06:57:48.159Z,36.90
2023-04-30T07:00:16.724Z,39.95
2023-04-30T07:02:47.748Z,38.90
2023-04-30T07:05:16.288Z,38.55
2023-04-30T07:07:44.423Z,37.80
2023-04-30T07:10:13.431Z,36.88
2023-04-30T07:12:42.890Z,49.47
2023-04-30T07:15:11.726Z,35.42
2023-04-30T07:17:41.804Z,37.70
2023-04-30T07:20:11.651Z,38.53
2023-04-30T07:22:39.844Z,38.83
2023-04-30T07:25:09.229Z,40.10
2023-04-30T07:27:37.352Z,47.53
2023-04-30T07:30:08.758Z,42.10
2023-04-30T07:32:37.322Z,58.60
2023-04-30T07:35:06.424Z,40.85
2023-04-30T07:37:35.812Z,44.30
2023-04-30T07:40:05.263Z,46.25
2023-04-30T07:42:33.658Z,39.85
2023-04-30T07:45:03.574Z,50.90
2023-04-30T07:47:33.508Z,50.40
2023-04-30T07:50:02.351Z,43.40
2023-04-30T07:52:30.549Z,43.47
2023-04-30T07:54:59.249Z,38.45
2023-04-30T07:57:27.639Z,49.22
2023-04-30T07:59:56.169Z,38.45
2023-04-30T08:02:24.715Z,41.47
2023-04-30T08:04:54.732Z,23.40
2023-04-30T08:07:22.838Z,23.13
2023-04-30T08:09:51.697Z,23.02
2023-04-30T08:12:19.862Z,26.77
2023-04-30T08:14:48.234Z,21.48
2023-04-30T08:17:16.512Z,24.77
2023-04-30T08:19:44.996Z,21.60
2023-04-30T08:22:14.605Z,18.98
2023-04-30T08:24:43.012Z,24.35
2023-04-30T08:27:11.353Z,30.48
2023-04-30T08:29:39.948Z,27.38
2023-04-30T08:32:09.225Z,24.08
2023-04-30T08:34:37.729Z,23.88
2023-04-30T08:37:05.983Z,19.02
2023-04-30T08:39:35.987Z,17.38
2023-04-30T08:42:05.695Z,16.67
2023-04-30T08:44:35.329Z,15.35
2023-04-30T08:47:04.903Z,17.88
2023-04-30T08:49:33.443Z,14.85
2023-04-30T08:52:02.168Z,17.85
2023-04-30T08:54:32.780Z,14.85
2023-04-30T08:57:02.651Z,15.10
2023-04-30T08:59:31.203Z,15.95
2023-04-30T09:01:59.723Z,17.35
2023-04-30T09:04:28.364Z,13.07
2023-04-30T09:06:59.074Z,16.88
2023-04-30T09:09:30.736Z,14.52
2023-04-30T09:12:18.823Z,12.23
2023-04-30T09:15:01.549Z,13.40
2023-04-30T09:17:30.332Z,12.70
2023-04-30T09:20:09.388Z,14.98
2023-04-30T09:22:38.321Z,10.52
2023-04-30T09:25:07.983Z,14.82
2023-04-30T09:27:37.610Z,16.63
2023-04-30T09:30:07.262Z,15.60
2023-04-30T09:32:35.398Z,11.07
2023-04-30T09:35:03.852Z,13.75
2023-04-30T09:37:38.551Z,13.38
2023-04-30T09:40:08.461Z,16.35
2023-04-30T09:42:38.124Z,9.45
2023-04-30T09:45:07.716Z,11.65
2023-04-30T09:47:36.171Z,14.35
2023-04-30T09:50:05.969Z,13.73
2023-04-30T09:52:34.088Z,11.43
2023-04-30T09:55:02.877Z,11.38
2023-04-30T09:57:32.299Z,10.15
2023-04-30T10:00:03.013Z,8.07
2023-04-30T10:02:31.296Z,6.13
2023-04-30T10:05:00.683Z,8.70
2023-04-30T10:07:36.510Z,9.77
2023-04-30T10:10:09.006Z,9.52
2023-04-30T10:12:42.268Z,9.52
2023-04-30T10:15:16.589Z,10.98
2023-04-30T10:17:48.418Z,10.80
2023-04-30T10:20:18.910Z,5.65
2023-04-30T10:22:49.307Z,8.00
2023-04-30T10:25:18.553Z,9.00
2023-04-30T10:27:47.126Z,10.88
2023-04-30T10:30:17.347Z,6.03
2023-04-30T10:32:52.158Z,7.53
2023-04-30T10:35:25.173Z,6.90
2023-04-30T10:37:58.614Z,9.93
2023-04-30T10:40:28.229Z,7.15
2023-04-30T10:42:56.680Z,10.65
2023-04-30T10:45:38.345Z,6.88
2023-04-30T10:48:07.783Z,7.90
2023-04-30T10:50:42.991Z,6.57
2023-04-30T10:53:14.685Z,6.18
2023-04-30T10:55:50.663Z,6.47
2023-04-30T10:58:29.075Z,8.20
2023-04-30T11:01:07.045Z,5.15
2023-04-30T11:03:37.107Z,6.60
2023-04-30T11:06:13.568Z,6.45
2023-04-30T11:08:45.484Z,6.20
2023-04-30T11:13:46.271Z,6.43
2023-04-30T11:16:17.602Z,7.95
2023-04-30T11:18:46.410Z,8.23
2023-04-30T11:21:15.031Z,4.07
2023-04-30T11:23:44.420Z,9.23
2023-04-30T11:26:13.048Z,11.68
2023-04-30T11:28:52.534Z,8.00
2023-04-30T11:31:22.487Z,4.57
2023-04-30T11:33:50.610Z,6.22
2023-04-30T11:36:18.987Z,6.97
2023-04-30T11:38:47.319Z,6.13
2023-04-30T11:41:16.055Z,6.53
2023-04-30T11:43:44.232Z,7.72
2023-04-30T11:46:13.784Z,6.70
2023-04-30T11:48:45.641Z,6.63
2023-04-30T11:53:47.551Z,5.30
2023-04-30T11:56:18.927Z,6.80
2023-04-30T11:58:48.447Z,5.23
2023-04-30T12:01:17.259Z,5.78
2023-04-30T12:03:48.108Z,8.23
2023-04-30T12:06:23.955Z,6.80
2023-04-30T12:08:54.261Z,6.78
2023-04-30T12:11:25.659Z,11.40
2023-04-30T12:13:55.279Z,4.50
2023-04-30T12:16:25.008Z,7.68
2023-04-30T12:18:55.660Z,6.85
2023-04-30T12:21:24.343Z,8.80
2023-04-30T12:23:52.518Z,5.22
2023-04-30T12:26:21.217Z,8.20
2023-04-30T12:28:49.800Z,7.50
2023-04-30T12:31:19.124Z,7.55
2023-04-30T12:33:57.162Z,4.90
2023-04-30T12:36:32.679Z,5.88
2023-04-30T12:39:11.213Z,4.85
2023-04-30T12:41:42.477Z,10.00
2023-04-30T12:44:18.263Z,5.18
2023-04-30T12:46:47.997Z,7.13
2023-04-30T12:49:26.108Z,6.57
2023-04-30T12:52:00.391Z,7.93
2023-04-30T12:54:29.827Z,4.55
2023-04-30T12:57:03.445Z,5.10
2023-04-30T12:59:32.869Z,3.80
2023-04-30T13:02:12.017Z,6.57
2023-04-30T13:04:42.982Z,5.72
2023-04-30T13:07:12.068Z,6.22
2023-04-30T13:09:40.730Z,8.68
2023-04-30T13:12:09.374Z,4.38
2023-04-30T13:14:37.527Z,5.78
2023-04-30T13:17:07.288Z,7.65
2023-04-30T13:19:36.233Z,5.57
2023-04-30T13:22:05.977Z,4.72
2023-04-30T13:24:34.337Z,3.75
2023-04-30T13:27:04.034Z,7.28
2023-04-30T13:29:32.850Z,6.32
2023-04-30T13:32:00.921Z,6.30
2023-04-30T13:34:29.291Z,10.18
2023-04-30T13:36:57.556Z,6.50
2023-04-30T13:39:27.409Z,6.88
2023-04-30T13:41:55.579Z,5.68
2023-04-30T13:44:24.203Z,6.03
2023-04-30T13:46:52.524Z,5.22
2023-04-30T13:49:21.044Z,5.57
2023-04-30T13:51:49.190Z,6.15
2023-04-30T13:54:17.714Z,5.75
2023-04-30T13:56:48.724Z,6.15
2023-04-30T13:59:17.300Z,6.43
2023-04-30T14:01:45.489Z,4.88
2023-04-30T14:04:14.122Z,3.90
2023-04-30T14:06:43.306Z,6.97
2023-04-30T14:09:11.763Z,5.10
2023-04-30T14:11:40.078Z,5.93
2023-04-30T14:14:10.254Z,5.55
2023-04-30T14:16:38.952Z,6.82
2023-04-30T14:19:07.360Z,4.22
2023-04-30T14:21:35.967Z,5.80
2023-04-30T14:24:04.863Z,3.83
2023-04-30T14:26:33.100Z,7.07
2023-04-30T14:29:01.647Z,4.65
2023-04-30T14:31:31.833Z,2.70
2023-04-30T14:34:00.295Z,5.97
2023-04-30T14:36:28.643Z,5.95
2023-04-30T14:38:57.290Z,6.50
2023-04-30T14:41:25.709Z,5.75
2023-04-30T14:43:54.490Z,6.18
2023-04-30T14:46:23.112Z,3.75
2023-04-30T14:48:54.128Z,5.85
2023-04-30T14:51:22.254Z,5.65
2023-04-30T14:53:50.647Z,3.65
2023-04-30T14:56:19.117Z,7.82
2023-04-30T14:58:47.538Z,5.47
2023-04-30T15:01:15.741Z,9.93
2023-04-30T15:03:44.689Z,9.77
2023-04-30T15:06:14.663Z,4.43
2023-04-30T15:08:43.058Z,7.57
2023-04-30T15:11:13.238Z,8.20
2023-04-30T15:13:41.609Z,8.50
2023-04-30T15:16:09.847Z,4.95
2023-04-30T15:18:38.275Z,6.25
2023-04-30T15:21:07.277Z,4.95
2023-04-30T15:23:37.527Z,6.22
2023-04-30T15:26:05.911Z,7.65
2023-04-30T15:28:34.542Z,4.32
2023-04-30T15:31:03.085Z,5.80
2023-04-30T15:33:31.787Z,5.00
2023-04-30T15:36:00.272Z,5.53
2023-04-30T15:38:29.025Z,5.35
2023-04-30T15:40:58.540Z,7.57
2023-04-30T15:43:27.133Z,6.63
2023-04-30T15:45:55.354Z,4.07
2023-04-30T15:48:23.772Z,5.60
2023-04-30T15:50:51.966Z,6.90
2023-04-30T15:53:20.477Z,3.95
2023-04-30T15:55:50.628Z,3.78
2023-04-30T15:58:20.414Z,8.45
2023-04-30T16:00:48.826Z,4.40
2023-04-30T16:03:17.491Z,6.80
2023-04-30T16:05:45.783Z,4.80
2023-04-30T16:08:15.002Z,15.32
2023-04-30T16:10:43.422Z,5.05
2023-04-30T16:13:11.868Z,7.82
2023-04-30T16:15:41.353Z,5.00
2023-04-30T16:18:09.969Z,5.88
2023-04-30T16:20:38.686Z,12.23
2023-04-30T16:23:07.301Z,7.00
2023-04-30T16:25:35.539Z,6.10
2023-04-30T16:28:04.282Z,10.55
2023-04-30T16:30:32.646Z,5.07
2023-04-30T16:33:02.457Z,3.10
2023-04-30T16:35:31.212Z,4.35
2023-04-30T16:37:59.840Z,4.88
2023-04-30T16:40:28.011Z,5.47
2023-04-30T16:42:56.635Z,5.65
2023-04-30T16:45:25.282Z,5.60
2023-04-30T16:47:53.824Z,5.93
2023-04-30T16:50:24.201Z,3.70
2023-04-30T16:52:52.741Z,5.63
2023-04-30T16:55:21.122Z,14.77
2023-04-30T16:57:50.612Z,6.47
2023-04-30T17:00:19.516Z,4.88
2023-04-30T17:02:49.065Z,3.83
2023-04-30T17:05:17.432Z,6.03
2023-04-30T17:07:47.178Z,6.28
2023-04-30T17:10:15.777Z,5.47
2023-04-30T17:12:44.674Z,4.07
2023-04-30T17:15:13.291Z,6.55
2023-04-30T17:17:42.047Z,5.57
2023-04-30T17:20:11.142Z,12.32
2023-04-30T17:22:40.157Z,7.95
2023-04-30T17:25:11.366Z,10.13
2023-04-30T17:27:39.888Z,11.77
2023-04-30T17:30:09.731Z,7.38
2023-04-30T17:32:38.898Z,5.45
2023-04-30T17:35:07.923Z,8.20
2023-04-30T17:37:36.557Z,7.55
2023-04-30T17:40:05.618Z,8.73
2023-04-30T17:42:35.479Z,10.00
2023-04-30T17:45:03.616Z,14.30
2023-04-30T17:47:32.468Z,6.03
2023-04-30T17:50:03.865Z,6.78
2023-04-30T17:52:35.623Z,8.70
2023-04-30T17:55:04.033Z,9.48
2023-04-30T17:57:32.831Z,7.72
2023-04-30T18:00:02.492Z,8.93
2023-04-30T18:02:31.556Z,6.60
2023-04-30T18:04:59.963Z,7.68
2023-04-30T18:07:28.471Z,7.63
2023-04-30T18:09:57.012Z,8.15
2023-04-30T18:12:26.050Z,6.45
2023-04-30T18:14:54.533Z,4.63
2023-04-30T18:17:25.802Z,7.10
2023-04-30T18:19:54.788Z,6.50
2023-04-30T18:22:23.566Z,10.45
2023-04-30T18:24:51.814Z,8.32
2023-04-30T18:27:20.175Z,9.40
2023-04-30T18:29:49.540Z,8.77
2023-04-30T18:32:18.088Z,7.32
2023-04-30T18:34:47.552Z,13.10
2023-04-30T18:37:17.792Z,8.68
2023-04-30T18:39:46.085Z,10.63
2023-04-30T18:42:14.713Z,12.70
2023-04-30T18:44:43.091Z,9.30
2023-04-30T18:47:11.694Z,14.98
2023-04-30T18:49:39.862Z,10.60
2023-04-30T18:52:10.126Z,10.07
2023-04-30T18:54:38.423Z,10.15
2023-04-30T18:57:07.853Z,10.27
2023-04-30T18:59:35.999Z,10.60
2023-04-30T19:02:04.626Z,9.63
2023-04-30T19:04:32.822Z,11.23
2023-04-30T19:07:01.257Z,11.43
2023-04-30T19:09:30.986Z,11.48
2023-04-30T19:11:59.751Z,10.10
2023-04-30T19:14:27.836Z,11.82
2023-04-30T19:16:57.276Z,10.60
2023-04-30T19:19:25.742Z,5.03
2023-04-30T19:21:54.398Z,8.95
2023-04-30T19:24:23.985Z,13.02
2023-04-30T19:26:53.970Z,7.28
2023-04-30T19:29:22.222Z,12.43
2023-04-30T19:31:50.980Z,10.25
2023-04-30T19:34:19.104Z,8.60
2023-04-30T19:36:47.572Z,8.35
2023-04-30T19:39:16.413Z,8.00
2023-04-30T19:41:45.103Z,9.90
2023-04-30T19:44:14.828Z,12.10
2023-04-30T19:46:43.475Z,10.70
2023-04-30T19:49:11.683Z,12.07
2023-04-30T19:51:40.041Z,8.30
2023-04-30T19:54:13.855Z,11.60
2023-04-30T19:56:42.596Z,12.68
2023-04-30T19:59:10.850Z,10.77
2023-04-30T20:01:41.514Z,12.50
2023-04-30T20:04:10.042Z,11.30
2023-04-30T20:06:39.003Z,12.77
2023-04-30T20:09:07.688Z,9.40
2023-04-30T20:11:36.257Z,13.65
2023-04-30T20:14:05.883Z,14.98
2023-04-30T20:16:34.313Z,12.93
2023-04-30T20:19:04.215Z,14.73
2023-04-30T20:21:32.916Z,22.83
2023-04-30T20:24:01.122Z,14.63
2023-04-30T20:26:29.910Z,13.80
2023-04-30T20:28:58.047Z,11.90
2023-04-30T20:31:31.137Z,13.27
2023-04-30T20:33:59.464Z,18.92
2023-04-30T20:36:31.501Z,21.23
2023-04-30T20:38:59.966Z,45.92
2023-04-30T20:41:28.431Z,27.13
2023-04-30T20:43:56.898Z,26.00
2023-04-30T20:46:25.419Z,13.57
2023-04-30T20:48:54.503Z,9.98
2023-04-30T20:51:23.439Z,13.07
2023-04-30T20:53:53.026Z,15.20
2023-04-30T20:56:21.438Z,12.88
2023-04-30T20:58:49.712Z,6.45
2023-04-30T21:01:18.199Z,8.65
2023-04-30T21:03:46.588Z,11.02
2023-04-30T21:06:15.916Z,13.55
2023-04-30T21:08:44.319Z,17.17
2023-04-30T21:11:14.768Z,16.70
2023-04-30T21:13:42.893Z,15.85
2023-04-30T21:16:11.309Z,11.25
2023-04-30T21:18:39.528Z,10.82
2023-04-30T21:21:09.712Z,24.92
2023-04-30T21:23:38.052Z,25.75
2023-04-30T21:26:06.517Z,39.53
2023-04-30T21:28:36.031Z,17.45
2023-04-30T21:31:06.014Z,17.60
2023-04-30T21:33:34.270Z,15.82
2023-04-30T21:36:02.988Z,9.55
2023-04-30T21:38:31.368Z,14.80
2023-04-30T21:40:59.791Z,19.80
2023-04-30T21:43:27.939Z,15.88
2023-04-30T21:46:02.633Z,18.13
2023-04-30T21:48:30.953Z,13.18
2023-04-30T21:50:59.533Z,19.48
2023-04-30T21:53:27.672Z,11.40
2023-04-30T21:55:57.164Z,13.25
2023-04-30T21:58:25.964Z,11.48
2023-04-30T22:00:54.867Z,17.05
2023-04-30T22:03:24.506Z,12.68
2023-04-30T22:05:54.481Z,16.45
2023-04-30T22:08:22.611Z,11.73
2023-04-30T22:10:51.315Z,13.80
2023-04-30T22:13:19.373Z,14.70
2023-04-30T22:15:48.807Z,10.88
2023-04-30T22:18:17.184Z,14.88
2023-04-30T22:20:47.078Z,10.90
2023-04-30T22:23:15.672Z,12.30
2023-04-30T22:25:44.338Z,10.27
2023-04-30T22:28:12.479Z,10.73
2023-04-30T22:30:40.940Z,11.98
2023-04-30T22:33:09.128Z,11.57
2023-04-30T22:35:39.143Z,13.77
2023-04-30T22:38:09.087Z,13.15
2023-04-30T22:40:40.123Z,15.77
2023-04-30T22:43:08.269Z,11.43
2023-04-30T22:45:38.183Z,17.02
2023-04-30T22:48:07.034Z,13.18
2023-04-30T22:50:35.595Z,14.68
2023-04-30T22:53:03.757Z,13.57
2023-04-30T22:55:34.908Z,15.88
2023-04-30T22:58:03.067Z,14.80
2023-04-30T23:00:31.462Z,15.18
2023-04-30T23:02:59.621Z,23.13
2023-04-30T23:05:28.064Z,16.35
2023-04-30T23:07:56.252Z,15.82
2023-04-30T23:10:24.948Z,14.40
2023-04-30T23:12:56.656Z,13.02
2023-04-30T23:15:25.320Z,15.10
2023-04-30T23:17:54.287Z,18.50
2023-04-30T23:20:23.544Z,17.48
2023-04-30T23:22:51.680Z,16.15
2023-04-30T23:25:20.147Z,18.00
2023-04-30T23:27:48.258Z,16.35
2023-04-30T23:30:18.240Z,16.73
2023-04-30T23:32:46.570Z,18.08
2023-04-30T23:35:14.968Z,16.90
2023-04-30T23:37:43.241Z,18.80
2023-04-30T23:40:12.273Z,17.10
2023-04-30T23:42:40.360Z,20.63
2023-04-30T23:45:10.630Z,17.10
2023-04-30T23:47:40.117Z,18.13
2023-04-30T23:50:09.845Z,21.27
2023-04-30T23:52:38.092Z,18.60
2023-04-30T23:55:07.309Z,16.55
2023-04-30T23:57:35.565Z,14.50
